createdAt,value
2023-03-06T00:02:14.199Z,5.20
2023-03-06T00:04:41.617Z,4.53
2023-03-06T00:07:12.369Z,4.45
2023-03-06T00:09:39.471Z,4.55
2023-03-06T00:12:07.288Z,4.65
2023-03-06T00:14:34.442Z,3.67
2023-03-06T00:17:01.578Z,4.53
2023-03-06T00:19:28.944Z,4.43
2023-03-06T00:21:56.128Z,4.75
2023-03-06T00:24:23.272Z,4.25
2023-03-06T00:26:50.942Z,4.00
2023-03-06T00:29:18.395Z,4.45
2023-03-06T00:31:47.881Z,4.78
2023-03-06T00:34:15.472Z,3.35
2023-03-06T00:36:42.563Z,3.42
2023-03-06T00:39:09.805Z,3.62
2023-03-06T00:41:37.211Z,3.40
2023-03-06T00:44:04.445Z,4.18
2023-03-06T00:46:31.618Z,4.07
2023-03-06T00:48:59.112Z,4.18
2023-03-06T00:51:26.343Z,3.20
2023-03-06T00:53:53.485Z,4.28
2023-03-06T00:56:21.023Z,3.62
2023-03-06T00:58:48.232Z,3.58
2023-03-06T01:01:15.385Z,4.03
2023-03-06T01:03:43.645Z,3.53
2023-03-06T01:06:10.902Z,3.87
2023-03-06T01:08:38.158Z,3.95
2023-03-06T01:11:05.825Z,3.55
2023-03-06T01:13:32.981Z,3.17
2023-03-06T01:16:09.787Z,4.28
2023-03-06T01:18:37.993Z,4.25
2023-03-06T01:21:05.895Z,3.87
2023-03-06T01:23:33.142Z,3.67
2023-03-06T01:26:00.707Z,4.57
2023-03-06T01:28:28.812Z,3.72
2023-03-06T01:30:56.433Z,4.25
2023-03-06T01:33:23.879Z,4.75
2023-03-06T01:35:51.047Z,4.60
2023-03-06T01:38:18.508Z,4.07
2023-03-06T01:40:46.254Z,5.07
2023-03-06T01:43:27.445Z,4.10
2023-03-06T01:46:33.723Z,4.70
2023-03-06T01:49:09.486Z,4.75
2023-03-06T01:51:51.739Z,4.53
2023-03-06T01:54:24.100Z,4.70
2023-03-06T01:56:56.569Z,4.10
2023-03-06T01:59:26.938Z,4.50
2023-03-06T02:01:57.123Z,4.15
2023-03-06T02:04:24.920Z,4.62
2023-03-06T02:06:52.056Z,4.30
2023-03-06T02:09:19.205Z,4.65
2023-03-06T02:11:46.751Z,4.45
2023-03-06T02:14:17.129Z,4.80
2023-03-06T02:16:44.812Z,4.78
2023-03-06T02:19:29.654Z,4.93
2023-03-06T02:21:57.146Z,4.47
2023-03-06T02:24:33.103Z,4.82
2023-03-06T02:27:03.406Z,4.97
2023-03-06T02:29:31.228Z,5.10
2023-03-06T02:31:59.241Z,4.80
2023-03-06T02:34:26.583Z,4.68
2023-03-06T02:37:08.909Z,5.50
2023-03-06T02:39:44.197Z,4.87
2023-03-06T02:42:21.732Z,4.82
2023-03-06T02:44:51.199Z,4.62
2023-03-06T02:47:18.276Z,5.05
2023-03-06T02:49:45.321Z,4.37
2023-03-06T02:52:12.845Z,5.20
2023-03-06T02:54:40.208Z,5.12
2023-03-06T02:57:07.459Z,5.47
2023-03-06T02:59:35.087Z,4.95
2023-03-06T03:02:02.492Z,5.00
2023-03-06T03:04:29.547Z,6.90
2023-03-06T03:06:56.996Z,4.75
2023-03-06T03:09:25.184Z,4.85
2023-03-06T03:11:52.291Z,5.55
2023-03-06T03:14:19.728Z,6.07
2023-03-06T03:16:46.965Z,5.25
2023-03-06T03:19:14.355Z,6.00
2023-03-06T03:21:42.882Z,5.72
2023-03-06T03:24:10.008Z,6.12
2023-03-06T03:26:37.129Z,6.25
2023-03-06T03:29:05.215Z,5.22
2023-03-06T03:31:32.915Z,6.03
2023-03-06T03:34:00.413Z,6.93
2023-03-06T03:36:30.665Z,5.93
2023-03-06T03:38:58.139Z,5.70
2023-03-06T03:41:25.787Z,5.75
2023-03-06T03:43:53.146Z,5.65
2023-03-06T03:46:21.559Z,6.03
2023-03-06T03:48:49.167Z,6.00
2023-03-06T03:51:17.145Z,5.25
2023-03-06T03:53:45.124Z,5.90
2023-03-06T03:56:13.267Z,5.20
2023-03-06T03:58:42.337Z,5.78
2023-03-06T04:01:09.498Z,6.57
2023-03-06T04:03:37.220Z,6.25
2023-03-06T04:06:04.978Z,5.62
2023-03-06T04:08:32.120Z,5.65
2023-03-06T04:11:00.114Z,5.87
2023-03-06T04:13:28.106Z,6.87
2023-03-06T04:15:56.423Z,6.95
2023-03-06T04:18:24.038Z,4.78
2023-03-06T04:20:52.335Z,6.50
2023-03-06T04:23:20.045Z,6.20
2023-03-06T04:25:47.782Z,6.93
2023-03-06T04:28:15.528Z,6.15
2023-03-06T04:30:43.090Z,5.80
2023-03-06T04:33:10.846Z,5.97
2023-03-06T04:35:38.419Z,5.85
2023-03-06T04:38:06.348Z,6.07
2023-03-06T04:40:35.634Z,5.85
2023-03-06T04:43:04.329Z,5.95
2023-03-06T04:45:32.557Z,5.28
2023-03-06T04:48:00.073Z,5.53
2023-03-06T04:50:32.578Z,6.15
2023-03-06T04:53:01.374Z,5.95
2023-03-06T04:55:29.490Z,6.10
2023-03-06T04:57:57.496Z,5.55
2023-03-06T05:00:31.493Z,6.97
2023-03-06T05:03:00.263Z,5.87
2023-03-06T05:05:28.171Z,5.62
2023-03-06T05:07:56.025Z,6.90
2023-03-06T05:10:23.903Z,5.90
2023-03-06T05:12:51.340Z,6.18
2023-03-06T05:15:18.836Z,7.68
2023-03-06T05:17:47.521Z,5.68
2023-03-06T05:20:16.392Z,6.70
2023-03-06T05:22:44.075Z,7.55
2023-03-06T05:25:11.410Z,6.35
2023-03-06T05:27:39.743Z,6.43
2023-03-06T05:30:07.769Z,5.78
2023-03-06T05:32:35.836Z,7.05
2023-03-06T05:35:04.348Z,8.00
2023-03-06T05:37:31.953Z,7.00
2023-03-06T05:39:59.787Z,7.68
2023-03-06T05:42:28.761Z,7.20
2023-03-06T05:44:55.885Z,7.93
2023-03-06T05:47:22.842Z,6.57
2023-03-06T05:49:50.406Z,6.60
2023-03-06T05:52:17.808Z,6.40
2023-03-06T05:54:44.898Z,6.45
2023-03-06T05:57:12.312Z,6.93
2023-03-06T05:59:39.330Z,6.57
